sensor_id;sensor_type;location;lat;lon;timestamp;P1;durP1;ratioP1;P2;durP2;ratioP2
8978;SDS011;4524;51.364;5.448;2023-06-10T00:00:11;9.63;;;6.80;;
8978;SDS011;4524;51.364;5.448;2023-06-10T00:02:41;8.17;;;7.47;;
8978;SDS011;4524;51.364;5.448;2023-06-10T00:05:10;8.33;;;7.60;;
8978;SDS011;4524;51.364;5.448;2023-06-10T00:07:38;7.80;;;7.00;;
8978;SDS011;4524;51.364;5.448;2023-06-10T00:10:07;8.27;;;7.43;;
8978;SDS011;4524;51.364;5.448;2023-06-10T00:12:37;8.23;;;7.13;;
8978;SDS011;4524;51.364;5.448;2023-06-10T00:15:07;7.83;;;7.13;;
8978;SDS011;4524;51.364;5.448;2023-06-10T00:17:36;8.73;;;6.90;;
8978;SDS011;4524;51.364;5.448;2023-06-10T00:20:07;8.10;;;7.30;;
8978;SDS011;4524;51.364;5.448;2023-06-10T00:22:38;7.97;;;7.20;;
8978;SDS011;4524;51.364;5.448;2023-06-10T00:25:08;7.87;;;7.10;;
8978;SDS011;4524;51.364;5.448;2023-06-10T00:27:38;9.53;;;7.77;;
8978;SDS011;4524;51.364;5.448;2023-06-10T00:30:08;8.83;;;7.60;;
8978;SDS011;4524;51.364;5.448;2023-06-10T00:32:36;7.90;;;7.20;;
8978;SDS011;4524;51.364;5.448;2023-06-10T00:35:05;10.37;;;7.40;;
8978;SDS011;4524;51.364;5.448;2023-06-10T00:37:34;8.33;;;7.50;;
8978;SDS011;4524;51.364;5.448;2023-06-10T00:40:03;7.80;;;7.07;;
8978;SDS011;4524;51.364;5.448;2023-06-10T00:42:31;8.00;;;7.10;;
8978;SDS011;4524;51.364;5.448;2023-06-10T00:45:21;8.90;;;7.77;;
8978;SDS011;4524;51.364;5.448;2023-06-10T00:47:50;9.77;;;7.10;;
8978;SDS011;4524;51.364;5.448;2023-06-10T00:50:18;8.33;;;7.50;;
8978;SDS011;4524;51.364;5.448;2023-06-10T00:52:46;8.63;;;7.73;;
8978;SDS011;4524;51.364;5.448;2023-06-10T00:55:15;8.20;;;7.40;;
8978;SDS011;4524;51.364;5.448;2023-06-10T00:57:44;10.00;;;7.37;;
8978;SDS011;4524;51.364;5.448;2023-06-10T01:00:14;8.27;;;7.47;;
8978;SDS011;4524;51.364;5.448;2023-06-10T01:02:44;10.10;;;7.90;;
8978;SDS011;4524;51.364;5.448;2023-06-10T01:05:12;10.73;;;8.03;;
8978;SDS011;4524;51.364;5.448;2023-06-10T01:07:43;8.80;;;7.97;;
8978;SDS011;4524;51.364;5.448;2023-06-10T01:10:20;8.20;;;7.40;;
8978;SDS011;4524;51.364;5.448;2023-06-10T01:12:55;8.43;;;7.53;;
8978;SDS011;4524;51.364;5.448;2023-06-10T01:15:29;8.93;;;8.10;;
8978;SDS011;4524;51.364;5.448;2023-06-10T01:17:59;8.30;;;7.50;;
8978;SDS011;4524;51.364;5.448;2023-06-10T01:20:31;8.67;;;7.83;;
8978;SDS011;4524;51.364;5.448;2023-06-10T01:23:01;8.37;;;7.60;;
8978;SDS011;4524;51.364;5.448;2023-06-10T01:25:30;9.67;;;7.70;;
8978;SDS011;4524;51.364;5.448;2023-06-10T01:28:01;8.67;;;7.77;;
8978;SDS011;4524;51.364;5.448;2023-06-10T01:30:32;9.40;;;8.50;;
8978;SDS011;4524;51.364;5.448;2023-06-10T01:33:06;9.87;;;8.40;;
8978;SDS011;4524;51.364;5.448;2023-06-10T01:35:36;7.87;;;7.27;;
8978;SDS011;4524;51.364;5.448;2023-06-10T01:38:08;10.53;;;7.73;;
8978;SDS011;4524;51.364;5.448;2023-06-10T01:40:37;8.90;;;8.00;;
8978;SDS011;4524;51.364;5.448;2023-06-10T01:43:06;9.13;;;8.23;;
8978;SDS011;4524;51.364;5.448;2023-06-10T01:45:34;9.40;;;8.47;;
8978;SDS011;4524;51.364;5.448;2023-06-10T01:48:02;9.27;;;8.33;;
8978;SDS011;4524;51.364;5.448;2023-06-10T01:50:30;8.50;;;7.77;;
8978;SDS011;4524;51.364;5.448;2023-06-10T01:52:59;8.87;;;8.00;;
8978;SDS011;4524;51.364;5.448;2023-06-10T01:55:28;9.73;;;8.67;;
8978;SDS011;4524;51.364;5.448;2023-06-10T01:57:56;9.00;;;8.20;;
8978;SDS011;4524;51.364;5.448;2023-06-10T02:00:24;9.60;;;8.60;;
8978;SDS011;4524;51.364;5.448;2023-06-10T02:02:52;10.00;;;9.00;;
8978;SDS011;4524;51.364;5.448;2023-06-10T02:05:20;11.53;;;9.23;;
8978;SDS011;4524;51.364;5.448;2023-06-10T02:07:49;10.30;;;9.27;;
8978;SDS011;4524;51.364;5.448;2023-06-10T02:10:17;9.97;;;8.83;;
8978;SDS011;4524;51.364;5.448;2023-06-10T02:12:46;9.60;;;8.70;;
8978;SDS011;4524;51.364;5.448;2023-06-10T02:15:14;10.37;;;9.30;;
8978;SDS011;4524;51.364;5.448;2023-06-10T02:17:45;9.53;;;8.53;;
8978;SDS011;4524;51.364;5.448;2023-06-10T02:20:15;9.70;;;8.80;;
8978;SDS011;4524;51.364;5.448;2023-06-10T02:22:43;11.00;;;9.90;;
8978;SDS011;4524;51.364;5.448;2023-06-10T02:25:11;11.20;;;9.37;;
8978;SDS011;4524;51.364;5.448;2023-06-10T02:27:39;10.17;;;9.17;;
8978;SDS011;4524;51.364;5.448;2023-06-10T02:30:27;14.53;;;10.10;;
8978;SDS011;4524;51.364;5.448;2023-06-10T02:32:55;10.60;;;9.60;;
8978;SDS011;4524;51.364;5.448;2023-06-10T02:35:24;10.27;;;8.73;;
8978;SDS011;4524;51.364;5.448;2023-06-10T02:37:53;10.10;;;9.10;;
8978;SDS011;4524;51.364;5.448;2023-06-10T02:40:21;10.60;;;9.57;;
8978;SDS011;4524;51.364;5.448;2023-06-10T02:42:49;12.03;;;9.70;;
8978;SDS011;4524;51.364;5.448;2023-06-10T02:45:37;10.90;;;9.77;;
8978;SDS011;4524;51.364;5.448;2023-06-10T02:48:07;10.67;;;9.67;;
8978;SDS011;4524;51.364;5.448;2023-06-10T02:50:35;11.17;;;10.07;;
8978;SDS011;4524;51.364;5.448;2023-06-10T02:53:23;10.33;;;9.17;;
8978;SDS011;4524;51.364;5.448;2023-06-10T02:55:57;10.93;;;9.90;;
8978;SDS011;4524;51.364;5.448;2023-06-10T02:58:26;10.57;;;9.47;;
8978;SDS011;4524;51.364;5.448;2023-06-10T03:00:56;10.80;;;9.70;;
8978;SDS011;4524;51.364;5.448;2023-06-10T03:03:26;11.00;;;10.00;;
8978;SDS011;4524;51.364;5.448;2023-06-10T03:06:00;11.30;;;9.90;;
8978;SDS011;4524;51.364;5.448;2023-06-10T03:08:29;10.40;;;9.50;;
8978;SDS011;4524;51.364;5.448;2023-06-10T03:11:00;10.87;;;9.87;;
8978;SDS011;4524;51.364;5.448;2023-06-10T03:13:29;10.33;;;9.43;;
8978;SDS011;4524;51.364;5.448;2023-06-10T03:15:59;11.00;;;10.00;;
8978;SDS011;4524;51.364;5.448;2023-06-10T03:18:29;11.57;;;9.97;;
8978;SDS011;4524;51.364;5.448;2023-06-10T03:20:57;11.47;;;10.40;;
8978;SDS011;4524;51.364;5.448;2023-06-10T03:23:26;10.03;;;9.13;;
8978;SDS011;4524;51.364;5.448;2023-06-10T03:25:55;11.23;;;10.13;;
8978;SDS011;4524;51.364;5.448;2023-06-10T03:28:24;11.17;;;10.17;;
8978;SDS011;4524;51.364;5.448;2023-06-10T03:30:52;10.23;;;9.33;;
8978;SDS011;4524;51.364;5.448;2023-06-10T03:33:24;12.97;;;10.10;;
8978;SDS011;4524;51.364;5.448;2023-06-10T03:35:52;10.57;;;9.53;;
8978;SDS011;4524;51.364;5.448;2023-06-10T03:38:21;10.13;;;9.13;;
8978;SDS011;4524;51.364;5.448;2023-06-10T03:40:50;11.40;;;10.20;;
8978;SDS011;4524;51.364;5.448;2023-06-10T03:43:18;11.30;;;10.13;;
8978;SDS011;4524;51.364;5.448;2023-06-10T03:45:47;12.00;;;9.53;;
8978;SDS011;4524;51.364;5.448;2023-06-10T03:48:16;11.57;;;10.47;;
8978;SDS011;4524;51.364;5.448;2023-06-10T03:50:51;11.83;;;10.70;;
8978;SDS011;4524;51.364;5.448;2023-06-10T03:53:21;12.33;;;10.80;;
8978;SDS011;4524;51.364;5.448;2023-06-10T03:55:49;12.60;;;11.00;;
8978;SDS011;4524;51.364;5.448;2023-06-10T03:58:21;11.20;;;10.17;;
8978;SDS011;4524;51.364;5.448;2023-06-10T04:00:49;11.93;;;10.73;;
8978;SDS011;4524;51.364;5.448;2023-06-10T04:03:17;12.23;;;11.10;;
8978;SDS011;4524;51.364;5.448;2023-06-10T04:05:51;12.67;;;11.23;;
8978;SDS011;4524;51.364;5.448;2023-06-10T04:08:39;12.43;;;10.63;;
8978;SDS011;4524;51.364;5.448;2023-06-10T04:13:57;13.67;;;11.70;;
8978;SDS011;4524;51.364;5.448;2023-06-10T04:16:25;14.17;;;11.87;;
8978;SDS011;4524;51.364;5.448;2023-06-10T04:18:54;12.73;;;11.53;;
8978;SDS011;4524;51.364;5.448;2023-06-10T04:21:24;12.43;;;11.23;;
8978;SDS011;4524;51.364;5.448;2023-06-10T04:23:52;12.53;;;11.30;;
8978;SDS011;4524;51.364;5.448;2023-06-10T04:26:20;12.80;;;11.50;;
8978;SDS011;4524;51.364;5.448;2023-06-10T04:28:50;14.17;;;12.87;;
8978;SDS011;4524;51.364;5.448;2023-06-10T04:31:18;13.50;;;12.30;;
8978;SDS011;4524;51.364;5.448;2023-06-10T04:33:47;14.60;;;12.23;;
8978;SDS011;4524;51.364;5.448;2023-06-10T04:36:35;15.33;;;12.80;;
8978;SDS011;4524;51.364;5.448;2023-06-10T04:39:04;15.07;;;12.23;;
8978;SDS011;4524;51.364;5.448;2023-06-10T04:41:34;15.00;;;13.00;;
8978;SDS011;4524;51.364;5.448;2023-06-10T04:44:02;14.23;;;12.73;;
8978;SDS011;4524;51.364;5.448;2023-06-10T04:46:31;12.83;;;11.53;;
8978;SDS011;4524;51.364;5.448;2023-06-10T04:48:59;15.67;;;13.60;;
8978;SDS011;4524;51.364;5.448;2023-06-10T04:51:27;15.20;;;13.57;;
8978;SDS011;4524;51.364;5.448;2023-06-10T04:53:56;15.13;;;12.83;;
8978;SDS011;4524;51.364;5.448;2023-06-10T04:56:24;15.20;;;13.60;;
8978;SDS011;4524;51.364;5.448;2023-06-10T04:58:52;15.10;;;13.70;;
8978;SDS011;4524;51.364;5.448;2023-06-10T05:01:20;15.77;;;14.17;;
8978;SDS011;4524;51.364;5.448;2023-06-10T05:03:48;15.97;;;14.27;;
8978;SDS011;4524;51.364;5.448;2023-06-10T05:06:16;15.30;;;13.77;;
8978;SDS011;4524;51.364;5.448;2023-06-10T05:08:44;15.57;;;14.07;;
8978;SDS011;4524;51.364;5.448;2023-06-10T05:11:14;15.63;;;13.47;;
8978;SDS011;4524;51.364;5.448;2023-06-10T05:13:42;17.53;;;14.90;;
8978;SDS011;4524;51.364;5.448;2023-06-10T05:16:10;15.67;;;14.07;;
8978;SDS011;4524;51.364;5.448;2023-06-10T05:18:38;15.30;;;13.80;;
8978;SDS011;4524;51.364;5.448;2023-06-10T05:21:06;16.20;;;14.37;;
8978;SDS011;4524;51.364;5.448;2023-06-10T05:23:34;15.90;;;14.37;;
8978;SDS011;4524;51.364;5.448;2023-06-10T05:26:02;15.67;;;14.13;;
8978;SDS011;4524;51.364;5.448;2023-06-10T05:28:32;17.43;;;14.60;;
8978;SDS011;4524;51.364;5.448;2023-06-10T05:31:00;16.77;;;15.07;;
8978;SDS011;4524;51.364;5.448;2023-06-10T05:33:47;15.87;;;14.37;;
8978;SDS011;4524;51.364;5.448;2023-06-10T05:36:15;15.97;;;14.37;;
8978;SDS011;4524;51.364;5.448;2023-06-10T05:38:43;15.60;;;14.10;;
8978;SDS011;4524;51.364;5.448;2023-06-10T05:41:11;14.70;;;13.40;;
8978;SDS011;4524;51.364;5.448;2023-06-10T05:43:40;15.97;;;14.47;;
8978;SDS011;4524;51.364;5.448;2023-06-10T05:46:08;16.07;;;13.83;;
8978;SDS011;4524;51.364;5.448;2023-06-10T05:48:36;15.77;;;14.07;;
8978;SDS011;4524;51.364;5.448;2023-06-10T05:51:04;15.27;;;13.70;;
8978;SDS011;4524;51.364;5.448;2023-06-10T05:53:32;14.30;;;12.70;;
8978;SDS011;4524;51.364;5.448;2023-06-10T05:56:00;17.63;;;14.03;;
8978;SDS011;4524;51.364;5.448;2023-06-10T05:58:28;15.47;;;13.90;;
8978;SDS011;4524;51.364;5.448;2023-06-10T06:00:57;15.67;;;14.27;;
8978;SDS011;4524;51.364;5.448;2023-06-10T06:03:26;14.83;;;13.33;;
8978;SDS011;4524;51.364;5.448;2023-06-10T06:05:55;15.10;;;13.50;;
8978;SDS011;4524;51.364;5.448;2023-06-10T06:08:23;17.03;;;13.23;;
8978;SDS011;4524;51.364;5.448;2023-06-10T06:10:51;16.67;;;14.23;;
8978;SDS011;4524;51.364;5.448;2023-06-10T06:13:19;17.53;;;12.97;;
8978;SDS011;4524;51.364;5.448;2023-06-10T06:16:07;14.77;;;13.40;;
8978;SDS011;4524;51.364;5.448;2023-06-10T06:18:34;13.40;;;12.03;;
8978;SDS011;4524;51.364;5.448;2023-06-10T06:21:02;14.93;;;13.40;;
8978;SDS011;4524;51.364;5.448;2023-06-10T06:23:30;13.27;;;11.87;;
8978;SDS011;4524;51.364;5.448;2023-06-10T06:25:58;14.40;;;12.90;;
8978;SDS011;4524;51.364;5.448;2023-06-10T06:28:26;13.60;;;12.00;;
8978;SDS011;4524;51.364;5.448;2023-06-10T06:30:55;12.27;;;10.97;;
8978;SDS011;4524;51.364;5.448;2023-06-10T06:33:25;14.57;;;13.07;;
8978;SDS011;4524;51.364;5.448;2023-06-10T06:35:53;12.47;;;11.33;;
8978;SDS011;4524;51.364;5.448;2023-06-10T06:38:21;11.93;;;10.70;;
8978;SDS011;4524;51.364;5.448;2023-06-10T06:40:49;15.17;;;11.90;;
8978;SDS011;4524;51.364;5.448;2023-06-10T06:43:17;13.60;;;12.20;;
8978;SDS011;4524;51.364;5.448;2023-06-10T06:46:01;12.87;;;11.60;;
8978;SDS011;4524;51.364;5.448;2023-06-10T06:48:30;12.13;;;11.00;;
8978;SDS011;4524;51.364;5.448;2023-06-10T06:50:59;12.67;;;11.00;;
8978;SDS011;4524;51.364;5.448;2023-06-10T06:53:27;13.27;;;10.97;;
8978;SDS011;4524;51.364;5.448;2023-06-10T06:55:59;12.47;;;11.00;;
8978;SDS011;4524;51.364;5.448;2023-06-10T06:58:27;12.77;;;11.43;;
8978;SDS011;4524;51.364;5.448;2023-06-10T07:00:55;12.23;;;10.93;;
8978;SDS011;4524;51.364;5.448;2023-06-10T07:03:24;13.70;;;11.27;;
8978;SDS011;4524;51.364;5.448;2023-06-10T07:05:53;11.90;;;10.07;;
8978;SDS011;4524;51.364;5.448;2023-06-10T07:08:21;12.93;;;10.83;;
8978;SDS011;4524;51.364;5.448;2023-06-10T07:10:49;14.83;;;11.10;;
8978;SDS011;4524;51.364;5.448;2023-06-10T07:13:17;11.30;;;10.20;;
8978;SDS011;4524;51.364;5.448;2023-06-10T07:15:45;12.30;;;9.80;;
8978;SDS011;4524;51.364;5.448;2023-06-10T07:18:14;11.20;;;10.00;;
8978;SDS011;4524;51.364;5.448;2023-06-10T07:20:43;11.10;;;10.03;;
8978;SDS011;4524;51.364;5.448;2023-06-10T07:23:12;12.73;;;10.63;;
8978;SDS011;4524;51.364;5.448;2023-06-10T07:25:41;11.70;;;9.70;;
8978;SDS011;4524;51.364;5.448;2023-06-10T07:28:09;9.80;;;8.73;;
8978;SDS011;4524;51.364;5.448;2023-06-10T07:30:37;12.07;;;9.13;;
8978;SDS011;4524;51.364;5.448;2023-06-10T07:33:05;11.63;;;9.83;;
8978;SDS011;4524;51.364;5.448;2023-06-10T07:35:34;13.07;;;9.00;;
8978;SDS011;4524;51.364;5.448;2023-06-10T07:38:02;10.47;;;9.43;;
8978;SDS011;4524;51.364;5.448;2023-06-10T07:40:31;10.17;;;8.67;;
8978;SDS011;4524;51.364;5.448;2023-06-10T07:43:00;11.03;;;9.17;;
8978;SDS011;4524;51.364;5.448;2023-06-10T07:45:28;10.47;;;8.50;;
8978;SDS011;4524;51.364;5.448;2023-06-10T07:47:56;11.63;;;8.50;;
8978;SDS011;4524;51.364;5.448;2023-06-10T07:50:24;9.57;;;8.57;;
8978;SDS011;4524;51.364;5.448;2023-06-10T07:52:52;10.80;;;9.70;;
8978;SDS011;4524;51.364;5.448;2023-06-10T07:55:20;10.37;;;8.90;;
8978;SDS011;4524;51.364;5.448;2023-06-10T07:57:50;11.70;;;8.57;;
8978;SDS011;4524;51.364;5.448;2023-06-10T08:00:18;9.10;;;8.20;;
8978;SDS011;4524;51.364;5.448;2023-06-10T08:03:05;10.87;;;8.27;;
8978;SDS011;4524;51.364;5.448;2023-06-10T08:05:34;12.03;;;8.60;;
8978;SDS011;4524;51.364;5.448;2023-06-10T08:08:02;11.97;;;8.83;;
8978;SDS011;4524;51.364;5.448;2023-06-10T08:10:31;11.90;;;9.03;;
8978;SDS011;4524;51.364;5.448;2023-06-10T08:13:00;10.27;;;8.63;;
8978;SDS011;4524;51.364;5.448;2023-06-10T08:15:28;11.17;;;9.30;;
8978;SDS011;4524;51.364;5.448;2023-06-10T08:17:56;15.47;;;9.80;;
8978;SDS011;4524;51.364;5.448;2023-06-10T08:20:24;10.00;;;8.70;;
8978;SDS011;4524;51.364;5.448;2023-06-10T08:22:53;9.93;;;8.70;;
8978;SDS011;4524;51.364;5.448;2023-06-10T08:25:21;8.50;;;7.70;;
8978;SDS011;4524;51.364;5.448;2023-06-10T08:27:49;11.17;;;8.27;;
8978;SDS011;4524;51.364;5.448;2023-06-10T08:30:19;9.07;;;8.10;;
8978;SDS011;4524;51.364;5.448;2023-06-10T08:32:47;10.30;;;8.40;;
8978;SDS011;4524;51.364;5.448;2023-06-10T08:35:15;10.20;;;8.00;;
8978;SDS011;4524;51.364;5.448;2023-06-10T08:37:43;10.37;;;7.97;;
8978;SDS011;4524;51.364;5.448;2023-06-10T08:40:12;9.77;;;8.07;;
8978;SDS011;4524;51.364;5.448;2023-06-10T08:42:43;8.90;;;7.90;;
8978;SDS011;4524;51.364;5.448;2023-06-10T08:45:16;9.27;;;8.37;;
8978;SDS011;4524;51.364;5.448;2023-06-10T08:47:46;8.90;;;7.70;;
8978;SDS011;4524;51.364;5.448;2023-06-10T08:50:18;10.77;;;7.90;;
8978;SDS011;4524;51.364;5.448;2023-06-10T08:52:47;8.30;;;7.10;;
8978;SDS011;4524;51.364;5.448;2023-06-10T08:55:18;11.23;;;8.23;;
8978;SDS011;4524;51.364;5.448;2023-06-10T08:57:58;8.83;;;7.63;;
8978;SDS011;4524;51.364;5.448;2023-06-10T09:00:27;10.67;;;7.87;;
8978;SDS011;4524;51.364;5.448;2023-06-10T09:02:58;10.00;;;7.90;;
8978;SDS011;4524;51.364;5.448;2023-06-10T09:05:31;10.63;;;8.03;;
8978;SDS011;4524;51.364;5.448;2023-06-10T09:08:01;9.10;;;7.40;;
8978;SDS011;4524;51.364;5.448;2023-06-10T09:10:29;10.47;;;6.87;;
8978;SDS011;4524;51.364;5.448;2023-06-10T09:12:57;8.50;;;7.10;;
8978;SDS011;4524;51.364;5.448;2023-06-10T09:15:25;11.93;;;7.60;;
8978;SDS011;4524;51.364;5.448;2023-06-10T09:17:53;8.57;;;6.97;;
8978;SDS011;4524;51.364;5.448;2023-06-10T09:20:23;8.37;;;7.47;;
8978;SDS011;4524;51.364;5.448;2023-06-10T09:22:51;11.23;;;6.87;;
8978;SDS011;4524;51.364;5.448;2023-06-10T09:25:19;10.67;;;7.00;;
8978;SDS011;4524;51.364;5.448;2023-06-10T09:28:02;10.70;;;6.63;;
8978;SDS011;4524;51.364;5.448;2023-06-10T09:30:31;9.83;;;7.03;;
8978;SDS011;4524;51.364;5.448;2023-06-10T09:33:01;8.97;;;7.03;;
8978;SDS011;4524;51.364;5.448;2023-06-10T09:35:33;9.53;;;6.40;;
8978;SDS011;4524;51.364;5.448;2023-06-10T09:38:01;10.30;;;7.63;;
8978;SDS011;4524;51.364;5.448;2023-06-10T09:40:30;9.13;;;7.20;;
8978;SDS011;4524;51.364;5.448;2023-06-10T09:42:58;7.97;;;6.37;;
8978;SDS011;4524;51.364;5.448;2023-06-10T09:45:29;7.37;;;6.67;;
8978;SDS011;4524;51.364;5.448;2023-06-10T09:47:58;7.80;;;6.63;;
8978;SDS011;4524;51.364;5.448;2023-06-10T09:50:26;7.23;;;6.23;;
8978;SDS011;4524;51.364;5.448;2023-06-10T09:52:56;12.00;;;6.67;;
8978;SDS011;4524;51.364;5.448;2023-06-10T09:55:24;7.50;;;6.27;;
8978;SDS011;4524;51.364;5.448;2023-06-10T09:57:53;9.33;;;6.53;;
8978;SDS011;4524;51.364;5.448;2023-06-10T10:00:22;7.07;;;6.13;;
8978;SDS011;4524;51.364;5.448;2023-06-10T10:02:53;7.20;;;6.03;;
8978;SDS011;4524;51.364;5.448;2023-06-10T10:05:22;7.50;;;6.50;;
8978;SDS011;4524;51.364;5.448;2023-06-10T10:07:51;6.17;;;5.57;;
8978;SDS011;4524;51.364;5.448;2023-06-10T10:10:20;9.00;;;6.50;;
8978;SDS011;4524;51.364;5.448;2023-06-10T10:12:50;7.70;;;6.73;;
8978;SDS011;4524;51.364;5.448;2023-06-10T10:15:23;10.17;;;6.63;;
8978;SDS011;4524;51.364;5.448;2023-06-10T10:17:55;6.87;;;6.20;;
8978;SDS011;4524;51.364;5.448;2023-06-10T10:20:33;7.20;;;6.37;;
8978;SDS011;4524;51.364;5.448;2023-06-10T10:23:02;8.97;;;6.20;;
8978;SDS011;4524;51.364;5.448;2023-06-10T10:25:34;9.70;;;6.30;;
8978;SDS011;4524;51.364;5.448;2023-06-10T10:28:06;9.90;;;6.53;;
8978;SDS011;4524;51.364;5.448;2023-06-10T10:30:37;6.60;;;5.90;;
8978;SDS011;4524;51.364;5.448;2023-06-10T10:33:12;12.93;;;6.53;;
8978;SDS011;4524;51.364;5.448;2023-06-10T10:35:46;9.97;;;6.43;;
8978;SDS011;4524;51.364;5.448;2023-06-10T10:38:14;7.17;;;6.47;;
8978;SDS011;4524;51.364;5.448;2023-06-10T10:40:44;6.60;;;5.70;;
8978;SDS011;4524;51.364;5.448;2023-06-10T10:43:13;6.67;;;5.97;;
8978;SDS011;4524;51.364;5.448;2023-06-10T10:45:46;6.43;;;5.83;;
8978;SDS011;4524;51.364;5.448;2023-06-10T10:48:24;6.80;;;5.70;;
8978;SDS011;4524;51.364;5.448;2023-06-10T10:50:56;11.37;;;7.07;;
8978;SDS011;4524;51.364;5.448;2023-06-10T10:53:24;7.60;;;6.17;;
8978;SDS011;4524;51.364;5.448;2023-06-10T10:56:01;6.90;;;5.97;;
8978;SDS011;4524;51.364;5.448;2023-06-10T10:58:33;6.63;;;5.93;;
8978;SDS011;4524;51.364;5.448;2023-06-10T11:01:09;8.70;;;6.17;;
8978;SDS011;4524;51.364;5.448;2023-06-10T11:03:42;7.00;;;6.17;;
8978;SDS011;4524;51.364;5.448;2023-06-10T11:06:12;7.27;;;6.30;;
8978;SDS011;4524;51.364;5.448;2023-06-10T11:08:47;8.40;;;6.00;;
8978;SDS011;4524;51.364;5.448;2023-06-10T11:11:19;7.37;;;6.00;;
8978;SDS011;4524;51.364;5.448;2023-06-10T11:13:57;8.93;;;5.80;;
8978;SDS011;4524;51.364;5.448;2023-06-10T11:16:27;9.90;;;6.17;;
8978;SDS011;4524;51.364;5.448;2023-06-10T11:18:56;6.70;;;6.10;;
8978;SDS011;4524;51.364;5.448;2023-06-10T11:21:24;8.77;;;5.90;;
8978;SDS011;4524;51.364;5.448;2023-06-10T11:23:57;6.20;;;5.60;;
8978;SDS011;4524;51.364;5.448;2023-06-10T11:26:33;8.33;;;6.30;;
8978;SDS011;4524;51.364;5.448;2023-06-10T11:29:08;10.00;;;6.10;;
8978;SDS011;4524;51.364;5.448;2023-06-10T11:31:40;6.53;;;5.93;;
8978;SDS011;4524;51.364;5.448;2023-06-10T11:34:10;6.40;;;5.80;;
8978;SDS011;4524;51.364;5.448;2023-06-10T11:36:40;8.30;;;6.10;;
8978;SDS011;4524;51.364;5.448;2023-06-10T11:39:11;6.90;;;6.30;;
8978;SDS011;4524;51.364;5.448;2023-06-10T11:41:41;7.37;;;5.47;;
8978;SDS011;4524;51.364;5.448;2023-06-10T11:44:09;6.47;;;5.37;;
8978;SDS011;4524;51.364;5.448;2023-06-10T11:46:41;7.07;;;5.70;;
8978;SDS011;4524;51.364;5.448;2023-06-10T11:49:10;6.33;;;5.73;;
8978;SDS011;4524;51.364;5.448;2023-06-10T11:51:39;6.53;;;5.80;;
8978;SDS011;4524;51.364;5.448;2023-06-10T11:54:11;7.07;;;6.10;;
8978;SDS011;4524;51.364;5.448;2023-06-10T11:56:40;8.00;;;5.87;;
8978;SDS011;4524;51.364;5.448;2023-06-10T11:59:08;6.83;;;5.90;;
8978;SDS011;4524;51.364;5.448;2023-06-10T12:01:37;6.57;;;5.83;;
8978;SDS011;4524;51.364;5.448;2023-06-10T12:04:10;7.97;;;5.80;;
8978;SDS011;4524;51.364;5.448;2023-06-10T12:06:40;6.77;;;5.90;;
8978;SDS011;4524;51.364;5.448;2023-06-10T12:09:13;6.77;;;5.60;;
8978;SDS011;4524;51.364;5.448;2023-06-10T12:11:52;7.87;;;6.27;;
8978;SDS011;4524;51.364;5.448;2023-06-10T12:17:21;7.53;;;5.53;;
8978;SDS011;4524;51.364;5.448;2023-06-10T12:19:50;6.47;;;5.37;;
8978;SDS011;4524;51.364;5.448;2023-06-10T12:22:18;7.23;;;5.40;;
8978;SDS011;4524;51.364;5.448;2023-06-10T12:24:57;12.60;;;5.37;;
8978;SDS011;4524;51.364;5.448;2023-06-10T12:27:28;6.17;;;5.30;;
8978;SDS011;4524;51.364;5.448;2023-06-10T12:29:58;6.70;;;5.50;;
8978;SDS011;4524;51.364;5.448;2023-06-10T12:32:36;6.47;;;5.77;;
8978;SDS011;4524;51.364;5.448;2023-06-10T12:35:05;7.37;;;5.50;;
8978;SDS011;4524;51.364;5.448;2023-06-10T12:37:34;6.43;;;5.10;;
8978;SDS011;4524;51.364;5.448;2023-06-10T12:40:08;5.83;;;5.33;;
8978;SDS011;4524;51.364;5.448;2023-06-10T12:42:38;6.47;;;5.50;;
8978;SDS011;4524;51.364;5.448;2023-06-10T12:45:08;6.20;;;5.60;;
8978;SDS011;4524;51.364;5.448;2023-06-10T12:47:37;6.80;;;5.90;;
8978;SDS011;4524;51.364;5.448;2023-06-10T12:50:06;6.40;;;5.67;;
8978;SDS011;4524;51.364;5.448;2023-06-10T12:52:36;6.23;;;5.63;;
8978;SDS011;4524;51.364;5.448;2023-06-10T12:55:04;6.83;;;5.70;;
8978;SDS011;4524;51.364;5.448;2023-06-10T12:57:33;9.50;;;6.17;;
8978;SDS011;4524;51.364;5.448;2023-06-10T13:00:02;10.20;;;5.77;;
8978;SDS011;4524;51.364;5.448;2023-06-10T13:02:34;7.13;;;5.73;;
8978;SDS011;4524;51.364;5.448;2023-06-10T13:05:03;7.93;;;5.20;;
8978;SDS011;4524;51.364;5.448;2023-06-10T13:07:31;8.33;;;5.60;;
8978;SDS011;4524;51.364;5.448;2023-06-10T13:09:59;176.63;;;10.47;;
8978;SDS011;4524;51.364;5.448;2023-06-10T13:12:27;7.03;;;5.33;;
8978;SDS011;4524;51.364;5.448;2023-06-10T13:15:14;8.70;;;5.70;;
8978;SDS011;4524;51.364;5.448;2023-06-10T13:17:42;14.30;;;6.03;;
8978;SDS011;4524;51.364;5.448;2023-06-10T13:20:11;6.17;;;5.57;;
8978;SDS011;4524;51.364;5.448;2023-06-10T13:22:40;5.87;;;5.33;;
8978;SDS011;4524;51.364;5.448;2023-06-10T13:25:08;6.50;;;5.90;;
8978;SDS011;4524;51.364;5.448;2023-06-10T13:27:37;16.40;;;6.30;;
8978;SDS011;4524;51.364;5.448;2023-06-10T13:30:07;6.27;;;5.77;;
8978;SDS011;4524;51.364;5.448;2023-06-10T13:32:37;6.70;;;5.83;;
8978;SDS011;4524;51.364;5.448;2023-06-10T13:35:06;6.30;;;5.63;;
8978;SDS011;4524;51.364;5.448;2023-06-10T13:37:35;8.10;;;5.93;;
8978;SDS011;4524;51.364;5.448;2023-06-10T13:40:04;7.10;;;5.50;;
8978;SDS011;4524;51.364;5.448;2023-06-10T13:42:34;6.65;;;5.78;;
8978;SDS011;4524;51.364;5.448;2023-06-10T13:45:03;7.10;;;5.67;;
8978;SDS011;4524;51.364;5.448;2023-06-10T13:47:32;7.57;;;5.67;;
8978;SDS011;4524;51.364;5.448;2023-06-10T13:50:02;6.00;;;5.43;;
8978;SDS011;4524;51.364;5.448;2023-06-10T13:52:30;6.50;;;5.90;;
8978;SDS011;4524;51.364;5.448;2023-06-10T13:54:58;7.65;;;5.85;;
8978;SDS011;4524;51.364;5.448;2023-06-10T13:57:26;6.63;;;6.03;;
8978;SDS011;4524;51.364;5.448;2023-06-10T13:59:54;6.40;;;5.80;;
8978;SDS011;4524;51.364;5.448;2023-06-10T14:02:22;6.77;;;5.70;;
8978;SDS011;4524;51.364;5.448;2023-06-10T14:04:50;6.38;;;5.78;;
8978;SDS011;4524;51.364;5.448;2023-06-10T14:07:20;6.73;;;5.80;;
8978;SDS011;4524;51.364;5.448;2023-06-10T14:09:48;7.00;;;5.93;;
8978;SDS011;4524;51.364;5.448;2023-06-10T14:12:17;6.03;;;5.43;;
8978;SDS011;4524;51.364;5.448;2023-06-10T14:14:45;7.40;;;6.30;;
8978;SDS011;4524;51.364;5.448;2023-06-10T14:17:31;8.23;;;6.13;;
8978;SDS011;4524;51.364;5.448;2023-06-10T14:19:59;6.38;;;5.75;;
8978;SDS011;4524;51.364;5.448;2023-06-10T14:22:29;6.80;;;6.20;;
8978;SDS011;4524;51.364;5.448;2023-06-10T14:24:57;8.38;;;6.13;;
8978;SDS011;4524;51.364;5.448;2023-06-10T14:27:25;6.63;;;6.00;;
8978;SDS011;4524;51.364;5.448;2023-06-10T14:29:53;8.85;;;6.13;;
8978;SDS011;4524;51.364;5.448;2023-06-10T14:32:20;9.05;;;5.75;;
8978;SDS011;4524;51.364;5.448;2023-06-10T14:34:49;7.25;;;6.05;;
8978;SDS011;4524;51.364;5.448;2023-06-10T14:37:17;6.35;;;5.75;;
8978;SDS011;4524;51.364;5.448;2023-06-10T14:39:46;6.88;;;6.18;;
8978;SDS011;4524;51.364;5.448;2023-06-10T14:42:14;7.28;;;6.00;;
8978;SDS011;4524;51.364;5.448;2023-06-10T14:44:42;7.05;;;5.90;;
8978;SDS011;4524;51.364;5.448;2023-06-10T14:47:10;6.90;;;6.35;;
8978;SDS011;4524;51.364;5.448;2023-06-10T14:49:57;8.18;;;6.20;;
8978;SDS011;4524;51.364;5.448;2023-06-10T14:52:25;6.80;;;6.20;;
8978;SDS011;4524;51.364;5.448;2023-06-10T14:54:54;7.28;;;6.28;;
8978;SDS011;4524;51.364;5.448;2023-06-10T14:57:22;7.00;;;6.40;;
8978;SDS011;4524;51.364;5.448;2023-06-10T14:59:50;6.72;;;6.07;;
8978;SDS011;4524;51.364;5.448;2023-06-10T15:02:18;7.05;;;6.35;;
8978;SDS011;4524;51.364;5.448;2023-06-10T15:04:46;6.78;;;6.07;;
8978;SDS011;4524;51.364;5.448;2023-06-10T15:07:14;6.80;;;6.13;;
8978;SDS011;4524;51.364;5.448;2023-06-10T15:10:04;6.53;;;5.93;;
8978;SDS011;4524;51.364;5.448;2023-06-10T15:12:32;7.13;;;6.35;;
8978;SDS011;4524;51.364;5.448;2023-06-10T15:15:00;10.40;;;6.40;;
8978;SDS011;4524;51.364;5.448;2023-06-10T15:17:29;7.10;;;6.40;;
8978;SDS011;4524;51.364;5.448;2023-06-10T15:19:57;8.43;;;6.57;;
8978;SDS011;4524;51.364;5.448;2023-06-10T15:22:25;9.05;;;6.45;;
8978;SDS011;4524;51.364;5.448;2023-06-10T15:24:53;12.98;;;6.88;;
8978;SDS011;4524;51.364;5.448;2023-06-10T15:27:23;7.20;;;6.60;;